sensor_id;sensor_type;location;lat;lon;timestamp;temperature;humidity
51783;DHT22;37845;53.196;5.638;2022-10-30T00:01:51;14.30;99.90
51783;DHT22;37845;53.196;5.638;2022-10-30T00:04:17;14.30;99.90
51783;DHT22;37845;53.196;5.638;2022-10-30T00:06:43;14.20;99.90
51783;DHT22;37845;53.196;5.638;2022-10-30T00:09:09;14.20;99.90
51783;DHT22;37845;53.196;5.638;2022-10-30T00:11:34;14.20;99.90
51783;DHT22;37845;53.196;5.638;2022-10-30T00:14:00;14.10;99.90
51783;DHT22;37845;53.196;5.638;2022-10-30T00:16:25;14.20;99.90
51783;DHT22;37845;53.196;5.638;2022-10-30T00:18:51;14.10;99.90
51783;DHT22;37845;53.196;5.638;2022-10-30T00:21:17;14.10;99.90
51783;DHT22;37845;53.196;5.638;2022-10-30T00:23:46;14.20;99.90
51783;DHT22;37845;53.196;5.638;2022-10-30T00:26:12;14.10;99.90
51783;DHT22;37845;53.196;5.638;2022-10-30T00:28:38;14.20;99.90
51783;DHT22;37845;53.196;5.638;2022-10-30T00:31:03;14.20;99.90
51783;DHT22;37845;53.196;5.638;2022-10-30T00:33:30;14.20;99.90
51783;DHT22;37845;53.196;5.638;2022-10-30T00:35:55;14.20;99.90
51783;DHT22;37845;53.196;5.638;2022-10-30T00:38:21;14.20;99.90
51783;DHT22;37845;53.196;5.638;2022-10-30T00:40:46;14.20;99.90
51783;DHT22;37845;53.196;5.638;2022-10-30T00:43:32;14.20;99.90
51783;DHT22;37845;53.196;5.638;2022-10-30T00:46:12;14.20;99.90
51783;DHT22;37845;53.196;5.638;2022-10-30T00:48:39;14.20;99.90
51783;DHT22;37845;53.196;5.638;2022-10-30T00:51:06;14.10;99.90
51783;DHT22;37845;53.196;5.638;2022-10-30T00:53:35;14.10;99.90
51783;DHT22;37845;53.196;5.638;2022-10-30T00:56:01;14.10;99.90
51783;DHT22;37845;53.196;5.638;2022-10-30T00:58:33;14.10;99.90
51783;DHT22;37845;53.196;5.638;2022-10-30T01:01:01;14.00;99.90
51783;DHT22;37845;53.196;5.638;2022-10-30T01:03:28;14.00;99.90
51783;DHT22;37845;53.196;5.638;2022-10-30T01:05:56;14.00;99.90
51783;DHT22;37845;53.196;5.638;2022-10-30T01:08:22;14.00;99.90
51783;DHT22;37845;53.196;5.638;2022-10-30T01:10:48;14.00;99.90
51783;DHT22;37845;53.196;5.638;2022-10-30T01:13:14;14.00;99.90
51783;DHT22;37845;53.196;5.638;2022-10-30T01:15:41;14.00;99.90
51783;DHT22;37845;53.196;5.638;2022-10-30T01:23:18;13.90;99.90
51783;DHT22;37845;53.196;5.638;2022-10-30T01:25:48;13.90;99.90
51783;DHT22;37845;53.196;5.638;2022-10-30T01:31:07;13.90;99.90
51783;DHT22;37845;53.196;5.638;2022-10-30T01:38:36;13.80;99.90
51783;DHT22;37845;53.196;5.638;2022-10-30T01:41:03;13.80;99.90
51783;DHT22;37845;53.196;5.638;2022-10-30T01:43:30;13.80;99.90
51783;DHT22;37845;53.196;5.638;2022-10-30T01:54:19;13.70;99.90
51783;DHT22;37845;53.196;5.638;2022-10-30T01:57:08;13.70;99.90
51783;DHT22;37845;53.196;5.638;2022-10-30T01:59:42;13.70;99.90
51783;DHT22;37845;53.196;5.638;2022-10-30T02:02:08;13.70;99.90
51783;DHT22;37845;53.196;5.638;2022-10-30T02:04:34;13.70;99.90
51783;DHT22;37845;53.196;5.638;2022-10-30T02:07:00;13.70;99.90
51783;DHT22;37845;53.196;5.638;2022-10-30T02:09:26;13.70;99.90
51783;DHT22;37845;53.196;5.638;2022-10-30T02:11:52;13.70;99.90
51783;DHT22;37845;53.196;5.638;2022-10-30T02:14:20;13.70;99.90
51783;DHT22;37845;53.196;5.638;2022-10-30T02:16:47;13.60;99.90
51783;DHT22;37845;53.196;5.638;2022-10-30T02:19:14;13.60;99.90
51783;DHT22;37845;53.196;5.638;2022-10-30T02:21:40;13.50;99.90
51783;DHT22;37845;53.196;5.638;2022-10-30T02:24:06;13.50;99.90
51783;DHT22;37845;53.196;5.638;2022-10-30T02:26:31;13.50;99.90
51783;DHT22;37845;53.196;5.638;2022-10-30T02:28:57;13.50;99.90
51783;DHT22;37845;53.196;5.638;2022-10-30T02:31:23;13.50;99.90
51783;DHT22;37845;53.196;5.638;2022-10-30T02:33:48;13.40;99.90
51783;DHT22;37845;53.196;5.638;2022-10-30T02:36:14;13.40;99.90
51783;DHT22;37845;53.196;5.638;2022-10-30T02:38:40;13.40;99.90
51783;DHT22;37845;53.196;5.638;2022-10-30T02:41:06;13.40;99.90
51783;DHT22;37845;53.196;5.638;2022-10-30T02:43:31;13.40;99.90
51783;DHT22;37845;53.196;5.638;2022-10-30T02:45:57;13.40;99.90
51783;DHT22;37845;53.196;5.638;2022-10-30T02:48:23;13.30;99.90
51783;DHT22;37845;53.196;5.638;2022-10-30T02:50:48;13.30;99.90
51783;DHT22;37845;53.196;5.638;2022-10-30T02:53:14;13.30;99.90
51783;DHT22;37845;53.196;5.638;2022-10-30T02:55:39;13.30;99.90
51783;DHT22;37845;53.196;5.638;2022-10-30T02:58:05;13.20;99.90
51783;DHT22;37845;53.196;5.638;2022-10-30T03:00:31;13.20;99.90
51783;DHT22;37845;53.196;5.638;2022-10-30T03:02:57;13.20;99.90
51783;DHT22;37845;53.196;5.638;2022-10-30T03:05:22;13.40;99.90
51783;DHT22;37845;53.196;5.638;2022-10-30T03:07:48;13.20;99.90
51783;DHT22;37845;53.196;5.638;2022-10-30T03:10:14;13.10;99.90
51783;DHT22;37845;53.196;5.638;2022-10-30T03:12:39;13.10;99.90
51783;DHT22;37845;53.196;5.638;2022-10-30T03:15:05;13.00;99.90
51783;DHT22;37845;53.196;5.638;2022-10-30T03:17:31;13.00;99.90
51783;DHT22;37845;53.196;5.638;2022-10-30T03:19:56;13.00;99.90
51783;DHT22;37845;53.196;5.638;2022-10-30T03:22:22;13.00;99.90
51783;DHT22;37845;53.196;5.638;2022-10-30T03:24:47;13.00;99.90
51783;DHT22;37845;53.196;5.638;2022-10-30T03:27:13;13.10;99.90
51783;DHT22;37845;53.196;5.638;2022-10-30T03:29:39;13.00;99.90
51783;DHT22;37845;53.196;5.638;2022-10-30T03:32:07;12.90;99.90
51783;DHT22;37845;53.196;5.638;2022-10-30T03:34:33;12.90;99.90
51783;DHT22;37845;53.196;5.638;2022-10-30T03:36:58;12.90;99.90
51783;DHT22;37845;53.196;5.638;2022-10-30T03:39:24;12.90;99.90
51783;DHT22;37845;53.196;5.638;2022-10-30T03:41:49;12.90;99.90
51783;DHT22;37845;53.196;5.638;2022-10-30T03:44:15;12.90;99.90
51783;DHT22;37845;53.196;5.638;2022-10-30T03:46:40;12.90;99.90
51783;DHT22;37845;53.196;5.638;2022-10-30T03:49:06;12.90;99.90
51783;DHT22;37845;53.196;5.638;2022-10-30T03:51:32;13.00;99.90
51783;DHT22;37845;53.196;5.638;2022-10-30T03:53:57;13.00;99.90
51783;DHT22;37845;53.196;5.638;2022-10-30T03:56:23;13.00;99.90
51783;DHT22;37845;53.196;5.638;2022-10-30T03:58:48;13.00;99.90
51783;DHT22;37845;53.196;5.638;2022-10-30T04:01:14;13.10;99.90
51783;DHT22;37845;53.196;5.638;2022-10-30T04:03:39;13.10;99.90
51783;DHT22;37845;53.196;5.638;2022-10-30T04:06:05;13.10;99.90
51783;DHT22;37845;53.196;5.638;2022-10-30T04:08:32;13.10;99.90
51783;DHT22;37845;53.196;5.638;2022-10-30T04:10:57;13.10;99.90
51783;DHT22;37845;53.196;5.638;2022-10-30T04:13:23;13.10;99.90
51783;DHT22;37845;53.196;5.638;2022-10-30T04:15:49;13.00;99.90
51783;DHT22;37845;53.196;5.638;2022-10-30T04:18:15;13.00;99.90
51783;DHT22;37845;53.196;5.638;2022-10-30T04:20:41;13.00;99.90
51783;DHT22;37845;53.196;5.638;2022-10-30T04:23:07;13.00;99.90
51783;DHT22;37845;53.196;5.638;2022-10-30T04:25:33;12.90;99.90
51783;DHT22;37845;53.196;5.638;2022-10-30T04:27:59;13.20;99.90
51783;DHT22;37845;53.196;5.638;2022-10-30T04:30:24;13.00;99.90
51783;DHT22;37845;53.196;5.638;2022-10-30T04:32:54;12.90;99.90
51783;DHT22;37845;53.196;5.638;2022-10-30T04:35:21;12.90;99.90
51783;DHT22;37845;53.196;5.638;2022-10-30T04:37:51;12.90;99.90
51783;DHT22;37845;53.196;5.638;2022-10-30T04:40:17;12.90;99.90
51783;DHT22;37845;53.196;5.638;2022-10-30T04:42:45;12.90;99.90
51783;DHT22;37845;53.196;5.638;2022-10-30T04:45:11;12.90;99.90
51783;DHT22;37845;53.196;5.638;2022-10-30T04:47:36;12.90;99.90
51783;DHT22;37845;53.196;5.638;2022-10-30T04:50:02;13.10;99.90
51783;DHT22;37845;53.196;5.638;2022-10-30T04:52:28;12.90;99.90
51783;DHT22;37845;53.196;5.638;2022-10-30T04:54:53;12.90;99.90
51783;DHT22;37845;53.196;5.638;2022-10-30T04:57:19;12.90;99.90
51783;DHT22;37845;53.196;5.638;2022-10-30T04:59:44;12.80;99.90
51783;DHT22;37845;53.196;5.638;2022-10-30T05:02:10;12.80;99.90
51783;DHT22;37845;53.196;5.638;2022-10-30T05:04:36;12.80;99.90
51783;DHT22;37845;53.196;5.638;2022-10-30T05:07:01;12.80;99.90
51783;DHT22;37845;53.196;5.638;2022-10-30T05:09:28;12.80;99.90
51783;DHT22;37845;53.196;5.638;2022-10-30T05:11:54;12.80;99.90
51783;DHT22;37845;53.196;5.638;2022-10-30T05:14:19;12.80;99.90
51783;DHT22;37845;53.196;5.638;2022-10-30T05:16:45;12.80;99.90
51783;DHT22;37845;53.196;5.638;2022-10-30T05:19:10;12.80;99.90
51783;DHT22;37845;53.196;5.638;2022-10-30T05:21:36;12.80;99.90
51783;DHT22;37845;53.196;5.638;2022-10-30T05:24:01;12.70;99.90
51783;DHT22;37845;53.196;5.638;2022-10-30T05:26:27;12.70;99.90
51783;DHT22;37845;53.196;5.638;2022-10-30T05:28:53;12.80;99.90
51783;DHT22;37845;53.196;5.638;2022-10-30T05:31:18;12.70;99.90
51783;DHT22;37845;53.196;5.638;2022-10-30T05:33:44;12.70;99.90
51783;DHT22;37845;53.196;5.638;2022-10-30T05:36:10;12.70;99.90
51783;DHT22;37845;53.196;5.638;2022-10-30T05:38:35;12.60;99.90
51783;DHT22;37845;53.196;5.638;2022-10-30T05:41:01;12.60;99.90
51783;DHT22;37845;53.196;5.638;2022-10-30T05:43:26;12.60;99.90
51783;DHT22;37845;53.196;5.638;2022-10-30T05:45:52;12.60;99.90
51783;DHT22;37845;53.196;5.638;2022-10-30T05:48:17;12.60;99.90
51783;DHT22;37845;53.196;5.638;2022-10-30T05:50:43;12.60;99.90
51783;DHT22;37845;53.196;5.638;2022-10-30T05:53:09;12.60;99.90
51783;DHT22;37845;53.196;5.638;2022-10-30T05:55:35;12.60;99.90
51783;DHT22;37845;53.196;5.638;2022-10-30T05:58:02;12.60;99.90
51783;DHT22;37845;53.196;5.638;2022-10-30T06:00:28;12.60;99.90
51783;DHT22;37845;53.196;5.638;2022-10-30T06:02:58;12.20;99.90
51783;DHT22;37845;53.196;5.638;2022-10-30T06:05:24;12.60;99.90
51783;DHT22;37845;53.196;5.638;2022-10-30T06:07:49;12.60;99.90
51783;DHT22;37845;53.196;5.638;2022-10-30T06:10:18;12.60;99.90
51783;DHT22;37845;53.196;5.638;2022-10-30T06:12:50;12.60;99.90
51783;DHT22;37845;53.196;5.638;2022-10-30T06:15:16;12.60;99.90
51783;DHT22;37845;53.196;5.638;2022-10-30T06:17:41;12.60;99.90
51783;DHT22;37845;53.196;5.638;2022-10-30T06:20:07;12.60;99.90
51783;DHT22;37845;53.196;5.638;2022-10-30T06:22:33;12.60;99.90
51783;DHT22;37845;53.196;5.638;2022-10-30T06:24:58;12.60;99.90
51783;DHT22;37845;53.196;5.638;2022-10-30T06:27:24;12.70;99.90
51783;DHT22;37845;53.196;5.638;2022-10-30T06:29:54;12.60;99.90
51783;DHT22;37845;53.196;5.638;2022-10-30T06:32:20;12.70;99.90
51783;DHT22;37845;53.196;5.638;2022-10-30T06:34:46;12.60;99.90
51783;DHT22;37845;53.196;5.638;2022-10-30T06:37:11;12.60;99.90
51783;DHT22;37845;53.196;5.638;2022-10-30T06:39:37;12.60;99.90
51783;DHT22;37845;53.196;5.638;2022-10-30T06:42:03;12.60;99.90
51783;DHT22;37845;53.196;5.638;2022-10-30T06:44:28;12.60;99.90
51783;DHT22;37845;53.196;5.638;2022-10-30T06:46:54;12.60;99.90
51783;DHT22;37845;53.196;5.638;2022-10-30T06:49:19;12.60;99.90
51783;DHT22;37845;53.196;5.638;2022-10-30T06:51:45;12.60;99.90
51783;DHT22;37845;53.196;5.638;2022-10-30T06:54:11;12.50;99.90
51783;DHT22;37845;53.196;5.638;2022-10-30T06:56:37;12.60;99.90
51783;DHT22;37845;53.196;5.638;2022-10-30T06:59:03;12.60;99.90
51783;DHT22;37845;53.196;5.638;2022-10-30T07:01:28;12.60;99.90
51783;DHT22;37845;53.196;5.638;2022-10-30T07:03:54;12.60;99.90
51783;DHT22;37845;53.196;5.638;2022-10-30T07:06:19;12.60;99.90
51783;DHT22;37845;53.196;5.638;2022-10-30T07:08:45;12.60;99.90
51783;DHT22;37845;53.196;5.638;2022-10-30T07:11:11;12.60;99.90
51783;DHT22;37845;53.196;5.638;2022-10-30T07:13:36;12.70;99.90
51783;DHT22;37845;53.196;5.638;2022-10-30T07:16:02;12.70;99.90
51783;DHT22;37845;53.196;5.638;2022-10-30T07:18:27;12.60;99.90
51783;DHT22;37845;53.196;5.638;2022-10-30T07:20:53;12.70;99.90
51783;DHT22;37845;53.196;5.638;2022-10-30T07:23:20;12.60;99.90
51783;DHT22;37845;53.196;5.638;2022-10-30T07:25:46;12.70;99.90
51783;DHT22;37845;53.196;5.638;2022-10-30T07:28:12;12.80;99.90
51783;DHT22;37845;53.196;5.638;2022-10-30T07:30:37;12.80;99.90
51783;DHT22;37845;53.196;5.638;2022-10-30T07:33:04;12.80;99.90
51783;DHT22;37845;53.196;5.638;2022-10-30T07:35:30;12.90;99.90
51783;DHT22;37845;53.196;5.638;2022-10-30T07:38:06;12.90;99.90
51783;DHT22;37845;53.196;5.638;2022-10-30T07:40:34;13.00;99.90
51783;DHT22;37845;53.196;5.638;2022-10-30T07:43:00;13.00;99.90
51783;DHT22;37845;53.196;5.638;2022-10-30T07:45:26;13.00;99.90
51783;DHT22;37845;53.196;5.638;2022-10-30T07:47:52;13.10;99.90
51783;DHT22;37845;53.196;5.638;2022-10-30T07:50:18;13.10;99.90
51783;DHT22;37845;53.196;5.638;2022-10-30T07:52:43;13.10;99.90
51783;DHT22;37845;53.196;5.638;2022-10-30T07:55:09;13.20;99.90
51783;DHT22;37845;53.196;5.638;2022-10-30T07:57:35;13.20;99.90
51783;DHT22;37845;53.196;5.638;2022-10-30T08:00:04;13.20;99.90
51783;DHT22;37845;53.196;5.638;2022-10-30T08:02:30;13.30;99.90
51783;DHT22;37845;53.196;5.638;2022-10-30T08:04:55;13.30;99.90
51783;DHT22;37845;53.196;5.638;2022-10-30T08:07:21;13.30;99.90
51783;DHT22;37845;53.196;5.638;2022-10-30T08:09:47;13.40;99.90
51783;DHT22;37845;53.196;5.638;2022-10-30T08:12:12;13.40;99.90
51783;DHT22;37845;53.196;5.638;2022-10-30T08:14:38;13.50;99.90
51783;DHT22;37845;53.196;5.638;2022-10-30T08:17:03;13.50;99.90
51783;DHT22;37845;53.196;5.638;2022-10-30T08:19:29;13.60;99.90
51783;DHT22;37845;53.196;5.638;2022-10-30T08:21:55;13.60;99.90
51783;DHT22;37845;53.196;5.638;2022-10-30T08:24:21;13.60;99.90
51783;DHT22;37845;53.196;5.638;2022-10-30T08:26:49;13.70;99.90
51783;DHT22;37845;53.196;5.638;2022-10-30T08:29:15;13.80;99.90
51783;DHT22;37845;53.196;5.638;2022-10-30T08:31:41;13.80;99.90
51783;DHT22;37845;53.196;5.638;2022-10-30T08:34:06;13.90;99.90
51783;DHT22;37845;53.196;5.638;2022-10-30T08:36:32;13.90;99.90
51783;DHT22;37845;53.196;5.638;2022-10-30T08:38:57;14.00;99.90
51783;DHT22;37845;53.196;5.638;2022-10-30T08:41:23;14.00;99.90
51783;DHT22;37845;53.196;5.638;2022-10-30T08:43:48;14.10;99.90
51783;DHT22;37845;53.196;5.638;2022-10-30T08:46:14;14.10;99.90
51783;DHT22;37845;53.196;5.638;2022-10-30T08:48:40;14.20;99.90
51783;DHT22;37845;53.196;5.638;2022-10-30T08:51:05;14.20;99.90
51783;DHT22;37845;53.196;5.638;2022-10-30T08:53:31;14.30;99.90
51783;DHT22;37845;53.196;5.638;2022-10-30T08:55:57;14.30;99.90
51783;DHT22;37845;53.196;5.638;2022-10-30T08:58:22;14.40;99.90
51783;DHT22;37845;53.196;5.638;2022-10-30T09:00:48;14.40;99.90
51783;DHT22;37845;53.196;5.638;2022-10-30T09:03:13;14.50;99.90
51783;DHT22;37845;53.196;5.638;2022-10-30T09:05:39;14.50;99.90
51783;DHT22;37845;53.196;5.638;2022-10-30T09:08:05;14.60;99.90
51783;DHT22;37845;53.196;5.638;2022-10-30T09:10:30;14.60;99.90
51783;DHT22;37845;53.196;5.638;2022-10-30T09:12:57;14.60;99.90
51783;DHT22;37845;53.196;5.638;2022-10-30T09:15:23;14.70;99.90
51783;DHT22;37845;53.196;5.638;2022-10-30T09:17:54;14.70;99.90
51783;DHT22;37845;53.196;5.638;2022-10-30T09:20:19;14.80;99.90
51783;DHT22;37845;53.196;5.638;2022-10-30T09:22:45;14.80;99.90
51783;DHT22;37845;53.196;5.638;2022-10-30T09:25:10;14.90;99.90
51783;DHT22;37845;53.196;5.638;2022-10-30T09:27:37;14.90;99.90
51783;DHT22;37845;53.196;5.638;2022-10-30T09:30:03;15.00;99.90
51783;DHT22;37845;53.196;5.638;2022-10-30T09:32:28;15.10;99.90
51783;DHT22;37845;53.196;5.638;2022-10-30T09:34:54;15.20;99.90
51783;DHT22;37845;53.196;5.638;2022-10-30T09:37:20;15.20;99.90
51783;DHT22;37845;53.196;5.638;2022-10-30T09:39:45;15.20;99.90
51783;DHT22;37845;53.196;5.638;2022-10-30T09:42:24;15.30;99.90
51783;DHT22;37845;53.196;5.638;2022-10-30T09:47:57;15.40;99.90
51783;DHT22;37845;53.196;5.638;2022-10-30T09:50:34;15.50;99.90
51783;DHT22;37845;53.196;5.638;2022-10-30T09:55:46;15.70;99.90
51783;DHT22;37845;53.196;5.638;2022-10-30T09:58:29;15.70;99.90
51783;DHT22;37845;53.196;5.638;2022-10-30T10:03:48;15.90;99.90
51783;DHT22;37845;53.196;5.638;2022-10-30T10:06:16;16.00;99.90
51783;DHT22;37845;53.196;5.638;2022-10-30T10:08:44;16.10;99.90
51783;DHT22;37845;53.196;5.638;2022-10-30T10:11:21;16.10;99.90
51783;DHT22;37845;53.196;5.638;2022-10-30T10:16:18;16.20;99.90
51783;DHT22;37845;53.196;5.638;2022-10-30T10:18:47;16.30;99.90
51783;DHT22;37845;53.196;5.638;2022-10-30T10:21:17;16.30;99.90
51783;DHT22;37845;53.196;5.638;2022-10-30T10:23:49;16.40;99.90
51783;DHT22;37845;53.196;5.638;2022-10-30T10:26:18;16.40;99.90
51783;DHT22;37845;53.196;5.638;2022-10-30T10:33:45;16.50;99.90
51783;DHT22;37845;53.196;5.638;2022-10-30T10:36:15;16.50;99.90
51783;DHT22;37845;53.196;5.638;2022-10-30T10:53:47;16.90;99.90
51783;DHT22;37845;53.196;5.638;2022-10-30T10:56:17;17.00;99.90
51783;DHT22;37845;53.196;5.638;2022-10-30T11:01:23;17.00;99.90
51783;DHT22;37845;53.196;5.638;2022-10-30T11:03:56;17.10;99.90
51783;DHT22;37845;53.196;5.638;2022-10-30T11:06:29;17.10;99.90
51783;DHT22;37845;53.196;5.638;2022-10-30T11:09:38;17.10;99.90
51783;DHT22;37845;53.196;5.638;2022-10-30T11:11:45;17.20;99.90
51783;DHT22;37845;53.196;5.638;2022-10-30T11:14:12;17.20;99.90
51783;DHT22;37845;53.196;5.638;2022-10-30T11:19:23;17.30;99.90
51783;DHT22;37845;53.196;5.638;2022-10-30T11:21:50;16.70;99.90
51783;DHT22;37845;53.196;5.638;2022-10-30T11:24:30;17.40;99.90
51783;DHT22;37845;53.196;5.638;2022-10-30T11:26:56;17.50;99.90
51783;DHT22;37845;53.196;5.638;2022-10-30T11:29:24;17.50;99.90
51783;DHT22;37845;53.196;5.638;2022-10-30T11:32:04;17.60;99.90
51783;DHT22;37845;53.196;5.638;2022-10-30T11:34:34;17.70;99.90
51783;DHT22;37845;53.196;5.638;2022-10-30T11:36:59;17.70;99.90
51783;DHT22;37845;53.196;5.638;2022-10-30T11:39:27;17.80;99.90
51783;DHT22;37845;53.196;5.638;2022-10-30T11:42:00;17.80;99.90
51783;DHT22;37845;53.196;5.638;2022-10-30T11:44:28;17.80;99.90
51783;DHT22;37845;53.196;5.638;2022-10-30T11:46:54;17.80;99.90
51783;DHT22;37845;53.196;5.638;2022-10-30T11:50:03;17.80;99.90
51783;DHT22;37845;53.196;5.638;2022-10-30T11:52:09;17.90;99.90
51783;DHT22;37845;53.196;5.638;2022-10-30T11:54:36;17.90;99.90
51783;DHT22;37845;53.196;5.638;2022-10-30T11:57:03;17.90;99.90
51783;DHT22;37845;53.196;5.638;2022-10-30T11:59:29;17.90;99.90
51783;DHT22;37845;53.196;5.638;2022-10-30T12:01:59;18.00;99.90
51783;DHT22;37845;53.196;5.638;2022-10-30T12:04:26;18.00;99.90
51783;DHT22;37845;53.196;5.638;2022-10-30T12:09:43;18.00;99.90
51783;DHT22;37845;53.196;5.638;2022-10-30T12:12:10;18.00;99.90
51783;DHT22;37845;53.196;5.638;2022-10-30T12:14:36;18.00;99.90
51783;DHT22;37845;53.196;5.638;2022-10-30T12:17:02;18.10;99.90
51783;DHT22;37845;53.196;5.638;2022-10-30T12:19:27;18.10;99.90
51783;DHT22;37845;53.196;5.638;2022-10-30T12:21:55;18.10;99.90
51783;DHT22;37845;53.196;5.638;2022-10-30T12:24:31;18.00;99.90
51783;DHT22;37845;53.196;5.638;2022-10-30T12:27:04;18.10;99.90
51783;DHT22;37845;53.196;5.638;2022-10-30T12:32:19;18.10;99.90
51783;DHT22;37845;53.196;5.638;2022-10-30T12:34:56;18.10;99.90
51783;DHT22;37845;53.196;5.638;2022-10-30T12:37:25;18.10;99.90
51783;DHT22;37845;53.196;5.638;2022-10-30T12:42:21;18.10;99.90
51783;DHT22;37845;53.196;5.638;2022-10-30T12:45:11;18.10;99.90
51783;DHT22;37845;53.196;5.638;2022-10-30T12:50:05;18.20;99.90
51783;DHT22;37845;53.196;5.638;2022-10-30T12:58:00;18.10;99.90
51783;DHT22;37845;53.196;5.638;2022-10-30T13:00:27;18.10;99.90
51783;DHT22;37845;53.196;5.638;2022-10-30T13:02:56;18.10;99.90
51783;DHT22;37845;53.196;5.638;2022-10-30T13:10:38;18.10;99.90
51783;DHT22;37845;53.196;5.638;2022-10-30T13:13:15;18.00;99.90
51783;DHT22;37845;53.196;5.638;2022-10-30T13:15:47;18.00;99.90
51783;DHT22;37845;53.196;5.638;2022-10-30T13:18:15;18.00;99.90
51783;DHT22;37845;53.196;5.638;2022-10-30T13:20:42;18.00;99.90
51783;DHT22;37845;53.196;5.638;2022-10-30T13:23:09;18.00;99.90
51783;DHT22;37845;53.196;5.638;2022-10-30T13:25:41;17.90;99.90
51783;DHT22;37845;53.196;5.638;2022-10-30T13:28:22;17.90;99.90
51783;DHT22;37845;53.196;5.638;2022-10-30T13:30:57;17.90;99.90
51783;DHT22;37845;53.196;5.638;2022-10-30T13:33:49;17.90;99.90
51783;DHT22;37845;53.196;5.638;2022-10-30T13:36:12;18.00;99.90
51783;DHT22;37845;53.196;5.638;2022-10-30T13:43:52;18.00;99.90
51783;DHT22;37845;53.196;5.638;2022-10-30T13:46:32;18.00;99.90
51783;DHT22;37845;53.196;5.638;2022-10-30T14:00:33;18.00;99.90
51783;DHT22;37845;53.196;5.638;2022-10-30T14:07:46;18.00;99.90
51783;DHT22;37845;53.196;5.638;2022-10-30T14:10:18;18.00;99.90
51783;DHT22;37845;53.196;5.638;2022-10-30T14:12:50;18.00;99.90
51783;DHT22;37845;53.196;5.638;2022-10-30T14:15:41;18.00;99.90
51783;DHT22;37845;53.196;5.638;2022-10-30T14:20:39;18.00;99.90
51783;DHT22;37845;53.196;5.638;2022-10-30T14:28:28;18.00;99.90
51783;DHT22;37845;53.196;5.638;2022-10-30T14:31:06;18.00;99.90
51783;DHT22;37845;53.196;5.638;2022-10-30T14:33:50;18.00;99.90
51783;DHT22;37845;53.196;5.638;2022-10-30T14:36:46;18.00;99.90
51783;DHT22;37845;53.196;5.638;2022-10-30T14:41:43;18.00;99.90
51783;DHT22;37845;53.196;5.638;2022-10-30T14:57:45;17.90;99.90
51783;DHT22;37845;53.196;5.638;2022-10-30T15:02:50;17.90;99.90
51783;DHT22;37845;53.196;5.638;2022-10-30T15:05:32;17.90;99.90
51783;DHT22;37845;53.196;5.638;2022-10-30T15:10:36;17.80;99.90
51783;DHT22;37845;53.196;5.638;2022-10-30T15:15:35;17.80;99.90
51783;DHT22;37845;53.196;5.638;2022-10-30T15:18:03;17.80;99.90
51783;DHT22;37845;53.196;5.638;2022-10-30T15:20:32;17.70;99.90
51783;DHT22;37845;53.196;5.638;2022-10-30T15:23:40;17.70;99.90
51783;DHT22;37845;53.196;5.638;2022-10-30T15:25:51;17.70;99.90
51783;DHT22;37845;53.196;5.638;2022-10-30T15:28:17;17.70;99.90
51783;DHT22;37845;53.196;5.638;2022-10-30T15:30:56;17.70;99.90
51783;DHT22;37845;53.196;5.638;2022-10-30T15:33:22;17.70;99.90
51783;DHT22;37845;53.196;5.638;2022-10-30T15:35:47;17.70;99.90
51783;DHT22;37845;53.196;5.638;2022-10-30T15:38:13;17.60;99.90
51783;DHT22;37845;53.196;5.638;2022-10-30T15:40:39;17.60;99.90
51783;DHT22;37845;53.196;5.638;2022-10-30T15:43:05;17.60;99.90
51783;DHT22;37845;53.196;5.638;2022-10-30T15:45:35;17.50;99.90
51783;DHT22;37845;53.196;5.638;2022-10-30T15:48:05;17.50;99.90
51783;DHT22;37845;53.196;5.638;2022-10-30T15:50:33;17.40;99.90
51783;DHT22;37845;53.196;5.638;2022-10-30T15:52:59;17.40;99.90
51783;DHT22;37845;53.196;5.638;2022-10-30T15:55:29;17.40;99.90
51783;DHT22;37845;53.196;5.638;2022-10-30T15:58:00;17.30;99.90
51783;DHT22;37845;53.196;5.638;2022-10-30T16:00:30;17.30;99.90
51783;DHT22;37845;53.196;5.638;2022-10-30T16:02:58;17.20;99.90
51783;DHT22;37845;53.196;5.638;2022-10-30T16:05:24;17.20;99.90
51783;DHT22;37845;53.196;5.638;2022-10-30T16:07:49;17.10;99.90
51783;DHT22;37845;53.196;5.638;2022-10-30T16:10:19;17.10;99.90
51783;DHT22;37845;53.196;5.638;2022-10-30T16:12:44;17.00;99.90
51783;DHT22;37845;53.196;5.638;2022-10-30T16:20:34;16.90;99.90
51783;DHT22;37845;53.196;5.638;2022-10-30T16:23:00;16.90;99.90
51783;DHT22;37845;53.196;5.638;2022-10-30T16:25:26;16.90;99.90
51783;DHT22;37845;53.196;5.638;2022-10-30T16:27:52;16.90;99.90
51783;DHT22;37845;53.196;5.638;2022-10-30T16:30:17;16.80;99.90
51783;DHT22;37845;53.196;5.638;2022-10-30T16:32:50;16.80;99.90
51783;DHT22;37845;53.196;5.638;2022-10-30T16:35:20;16.80;99.90
51783;DHT22;37845;53.196;5.638;2022-10-30T16:37:50;16.80;99.90
51783;DHT22;37845;53.196;5.638;2022-10-30T16:40:17;16.70;99.90
51783;DHT22;37845;53.196;5.638;2022-10-30T16:42:45;16.70;99.90
51783;DHT22;37845;53.196;5.638;2022-10-30T16:47:37;16.70;99.90
51783;DHT22;37845;53.196;5.638;2022-10-30T16:50:03;16.70;99.90
51783;DHT22;37845;53.196;5.638;2022-10-30T16:52:32;16.70;99.90
51783;DHT22;37845;53.196;5.638;2022-10-30T16:55:01;16.70;99.90
51783;DHT22;37845;53.196;5.638;2022-10-30T16:57:29;16.70;99.90
51783;DHT22;37845;53.196;5.638;2022-10-30T16:59:55;16.70;99.90
51783;DHT22;37845;53.196;5.638;2022-10-30T17:02:25;16.60;99.90
51783;DHT22;37845;53.196;5.638;2022-10-30T17:04:52;16.60;99.90
51783;DHT22;37845;53.196;5.638;2022-10-30T17:07:20;16.60;99.90
51783;DHT22;37845;53.196;5.638;2022-10-30T17:09:47;16.30;99.90
51783;DHT22;37845;53.196;5.638;2022-10-30T17:19:54;16.60;99.90
51783;DHT22;37845;53.196;5.638;2022-10-30T17:22:20;16.50;99.90
51783;DHT22;37845;53.196;5.638;2022-10-30T17:24:46;16.50;99.90
51783;DHT22;37845;53.196;5.638;2022-10-30T17:27:26;16.50;99.90
51783;DHT22;37845;53.196;5.638;2022-10-30T17:29:52;16.50;99.90
51783;DHT22;37845;53.196;5.638;2022-10-30T17:32:19;16.50;99.90
51783;DHT22;37845;53.196;5.638;2022-10-30T17:34:45;16.50;99.90
51783;DHT22;37845;53.196;5.638;2022-10-30T17:37:11;16.40;99.90
51783;DHT22;37845;53.196;5.638;2022-10-30T17:39:36;16.40;99.90
51783;DHT22;37845;53.196;5.638;2022-10-30T17:42:02;16.40;99.90
51783;DHT22;37845;53.196;5.638;2022-10-30T17:44:29;16.30;99.90
51783;DHT22;37845;53.196;5.638;2022-10-30T17:46:55;16.30;99.90
51783;DHT22;37845;53.196;5.638;2022-10-30T17:49:22;16.30;99.90
51783;DHT22;37845;53.196;5.638;2022-10-30T17:51:48;16.30;99.90
51783;DHT22;37845;53.196;5.638;2022-10-30T17:54:15;16.20;99.90
51783;DHT22;37845;53.196;5.638;2022-10-30T17:56:41;16.20;99.90
51783;DHT22;37845;53.196;5.638;2022-10-30T17:59:06;16.20;99.90
51783;DHT22;37845;53.196;5.638;2022-10-30T18:01:32;16.20;99.90